sensor_id;sensor_type;location;lat;lon;timestamp;P1;durP1;ratioP1;P2;durP2;ratioP2
44270;SDS011;29963;44.594;11.368;2022-07-06T00:01:59;7.82;;;4.47;;
44270;SDS011;29963;44.594;11.368;2022-07-06T00:04:25;8.40;;;4.63;;
44270;SDS011;29963;44.594;11.368;2022-07-06T00:06:54;10.30;;;5.03;;
44270;SDS011;29963;44.594;11.368;2022-07-06T00:09:19;7.18;;;4.90;;
44270;SDS011;29963;44.594;11.368;2022-07-06T00:11:45;10.57;;;5.40;;
44270;SDS011;29963;44.594;11.368;2022-07-06T00:14:11;8.50;;;4.70;;
44270;SDS011;29963;44.594;11.368;2022-07-06T00:16:37;9.25;;;5.28;;
44270;SDS011;29963;44.594;11.368;2022-07-06T00:19:03;5.43;;;4.53;;
44270;SDS011;29963;44.594;11.368;2022-07-06T00:21:29;7.00;;;5.53;;
44270;SDS011;29963;44.594;11.368;2022-07-06T00:23:55;10.00;;;4.93;;
44270;SDS011;29963;44.594;11.368;2022-07-06T00:26:20;5.68;;;4.15;;
44270;SDS011;29963;44.594;11.368;2022-07-06T00:28:46;5.72;;;4.40;;
44270;SDS011;29963;44.594;11.368;2022-07-06T00:31:12;5.45;;;4.10;;
44270;SDS011;29963;44.594;11.368;2022-07-06T00:33:38;8.15;;;4.88;;
44270;SDS011;29963;44.594;11.368;2022-07-06T00:36:04;4.93;;;4.22;;
44270;SDS011;29963;44.594;11.368;2022-07-06T00:38:30;4.90;;;3.50;;
44270;SDS011;29963;44.594;11.368;2022-07-06T00:40:56;13.48;;;4.95;;
44270;SDS011;29963;44.594;11.368;2022-07-06T00:43:22;9.45;;;4.70;;
44270;SDS011;29963;44.594;11.368;2022-07-06T00:45:48;8.00;;;3.42;;
44270;SDS011;29963;44.594;11.368;2022-07-06T00:48:14;5.57;;;3.35;;
44270;SDS011;29963;44.594;11.368;2022-07-06T00:50:40;5.13;;;3.45;;
44270;SDS011;29963;44.594;11.368;2022-07-06T00:53:06;6.68;;;2.78;;
44270;SDS011;29963;44.594;11.368;2022-07-06T00:55:36;7.22;;;3.42;;
44270;SDS011;29963;44.594;11.368;2022-07-06T00:58:07;7.47;;;3.50;;
44270;SDS011;29963;44.594;11.368;2022-07-06T01:00:34;5.00;;;2.88;;
44270;SDS011;29963;44.594;11.368;2022-07-06T01:03:00;4.40;;;2.97;;
44270;SDS011;29963;44.594;11.368;2022-07-06T01:05:27;6.50;;;2.58;;
44270;SDS011;29963;44.594;11.368;2022-07-06T01:07:53;3.65;;;2.80;;
44270;SDS011;29963;44.594;11.368;2022-07-06T01:10:20;5.25;;;2.28;;
44270;SDS011;29963;44.594;11.368;2022-07-06T01:12:47;7.38;;;3.17;;
44270;SDS011;29963;44.594;11.368;2022-07-06T01:15:14;2.97;;;2.50;;
44270;SDS011;29963;44.594;11.368;2022-07-06T01:17:47;5.03;;;2.50;;
44270;SDS011;29963;44.594;11.368;2022-07-06T01:20:17;9.05;;;2.70;;
44270;SDS011;29963;44.594;11.368;2022-07-06T01:22:49;3.58;;;2.40;;
44270;SDS011;29963;44.594;11.368;2022-07-06T01:25:16;3.42;;;2.40;;
44270;SDS011;29963;44.594;11.368;2022-07-06T01:27:43;6.70;;;2.50;;
44270;SDS011;29963;44.594;11.368;2022-07-06T01:30:12;5.70;;;2.58;;
44270;SDS011;29963;44.594;11.368;2022-07-06T01:32:40;2.47;;;2.05;;
44270;SDS011;29963;44.594;11.368;2022-07-06T01:35:07;4.13;;;2.50;;
44270;SDS011;29963;44.594;11.368;2022-07-06T01:37:35;4.93;;;2.95;;
44270;SDS011;29963;44.594;11.368;2022-07-06T01:40:01;3.10;;;2.45;;
44270;SDS011;29963;44.594;11.368;2022-07-06T01:42:29;4.47;;;2.35;;
44270;SDS011;29963;44.594;11.368;2022-07-06T01:44:55;4.38;;;1.75;;
44270;SDS011;29963;44.594;11.368;2022-07-06T01:47:21;4.28;;;1.85;;
44270;SDS011;29963;44.594;11.368;2022-07-06T01:49:47;2.85;;;2.00;;
44270;SDS011;29963;44.594;11.368;2022-07-06T01:52:13;5.55;;;2.80;;
44270;SDS011;29963;44.594;11.368;2022-07-06T01:54:38;2.60;;;1.90;;
44270;SDS011;29963;44.594;11.368;2022-07-06T01:57:04;4.45;;;1.85;;
44270;SDS011;29963;44.594;11.368;2022-07-06T01:59:30;5.60;;;1.80;;
44270;SDS011;29963;44.594;11.368;2022-07-06T02:01:56;5.25;;;2.25;;
44270;SDS011;29963;44.594;11.368;2022-07-06T02:04:21;4.90;;;1.95;;
44270;SDS011;29963;44.594;11.368;2022-07-06T02:06:47;4.30;;;2.10;;
44270;SDS011;29963;44.594;11.368;2022-07-06T02:09:16;5.72;;;1.90;;
44270;SDS011;29963;44.594;11.368;2022-07-06T02:11:42;3.75;;;1.65;;
44270;SDS011;29963;44.594;11.368;2022-07-06T02:14:08;3.78;;;2.10;;
44270;SDS011;29963;44.594;11.368;2022-07-06T02:16:34;3.78;;;2.28;;
44270;SDS011;29963;44.594;11.368;2022-07-06T02:19:03;4.63;;;1.85;;
44270;SDS011;29963;44.594;11.368;2022-07-06T02:21:29;3.08;;;1.83;;
44270;SDS011;29963;44.594;11.368;2022-07-06T02:23:54;4.75;;;2.00;;
44270;SDS011;29963;44.594;11.368;2022-07-06T02:26:20;2.65;;;1.60;;
44270;SDS011;29963;44.594;11.368;2022-07-06T02:28:46;5.35;;;2.20;;
44270;SDS011;29963;44.594;11.368;2022-07-06T02:31:12;2.10;;;1.90;;
44270;SDS011;29963;44.594;11.368;2022-07-06T02:33:39;3.95;;;2.28;;
44270;SDS011;29963;44.594;11.368;2022-07-06T02:36:05;4.22;;;1.83;;
44270;SDS011;29963;44.594;11.368;2022-07-06T02:38:31;1.95;;;1.48;;
44270;SDS011;29963;44.594;11.368;2022-07-06T02:40:56;2.47;;;1.88;;
44270;SDS011;29963;44.594;11.368;2022-07-06T02:43:22;5.18;;;2.08;;
44270;SDS011;29963;44.594;11.368;2022-07-06T02:45:48;2.65;;;1.70;;
44270;SDS011;29963;44.594;11.368;2022-07-06T02:48:13;4.30;;;1.55;;
44270;SDS011;29963;44.594;11.368;2022-07-06T02:50:39;4.53;;;1.90;;
44270;SDS011;29963;44.594;11.368;2022-07-06T02:53:05;5.47;;;2.33;;
44270;SDS011;29963;44.594;11.368;2022-07-06T02:55:30;1.73;;;1.63;;
44270;SDS011;29963;44.594;11.368;2022-07-06T02:57:56;6.97;;;2.42;;
44270;SDS011;29963;44.594;11.368;2022-07-06T03:00:22;3.15;;;1.88;;
44270;SDS011;29963;44.594;11.368;2022-07-06T03:02:48;4.93;;;1.90;;
44270;SDS011;29963;44.594;11.368;2022-07-06T03:05:13;2.50;;;1.70;;
44270;SDS011;29963;44.594;11.368;2022-07-06T03:07:39;11.27;;;2.15;;
44270;SDS011;29963;44.594;11.368;2022-07-06T03:10:05;9.02;;;1.50;;
44270;SDS011;29963;44.594;11.368;2022-07-06T03:12:31;3.53;;;1.73;;
44270;SDS011;29963;44.594;11.368;2022-07-06T03:14:56;4.97;;;1.73;;
44270;SDS011;29963;44.594;11.368;2022-07-06T03:17:22;2.63;;;1.45;;
44270;SDS011;29963;44.594;11.368;2022-07-06T03:19:48;2.92;;;1.55;;
44270;SDS011;29963;44.594;11.368;2022-07-06T03:22:13;3.58;;;1.98;;
44270;SDS011;29963;44.594;11.368;2022-07-06T03:24:39;2.90;;;1.50;;
44270;SDS011;29963;44.594;11.368;2022-07-06T03:27:05;2.60;;;1.52;;
44270;SDS011;29963;44.594;11.368;2022-07-06T03:29:31;4.13;;;1.27;;
44270;SDS011;29963;44.594;11.368;2022-07-06T03:31:56;4.63;;;1.60;;
44270;SDS011;29963;44.594;11.368;2022-07-06T03:34:22;2.60;;;1.08;;
44270;SDS011;29963;44.594;11.368;2022-07-06T03:36:48;2.05;;;1.10;;
44270;SDS011;29963;44.594;11.368;2022-07-06T03:39:13;2.92;;;0.95;;
44270;SDS011;29963;44.594;11.368;2022-07-06T03:41:39;2.88;;;1.00;;
44270;SDS011;29963;44.594;11.368;2022-07-06T03:44:05;2.17;;;1.30;;
44270;SDS011;29963;44.594;11.368;2022-07-06T03:46:30;5.05;;;1.17;;
44270;SDS011;29963;44.594;11.368;2022-07-06T03:48:56;2.67;;;1.30;;
44270;SDS011;29963;44.594;11.368;2022-07-06T03:51:22;2.72;;;0.80;;
44270;SDS011;29963;44.594;11.368;2022-07-06T03:53:47;2.35;;;1.00;;
44270;SDS011;29963;44.594;11.368;2022-07-06T03:56:13;4.45;;;1.30;;
44270;SDS011;29963;44.594;11.368;2022-07-06T03:59:01;3.42;;;0.95;;
44270;SDS011;29963;44.594;11.368;2022-07-06T04:01:27;9.57;;;1.55;;
44270;SDS011;29963;44.594;11.368;2022-07-06T04:03:53;2.13;;;1.00;;
44270;SDS011;29963;44.594;11.368;2022-07-06T04:06:19;4.00;;;0.80;;
44270;SDS011;29963;44.594;11.368;2022-07-06T04:08:45;5.80;;;1.10;;
44270;SDS011;29963;44.594;11.368;2022-07-06T04:11:10;5.40;;;0.90;;
44270;SDS011;29963;44.594;11.368;2022-07-06T04:13:36;1.95;;;0.77;;
44270;SDS011;29963;44.594;11.368;2022-07-06T04:16:04;4.07;;;1.67;;
44270;SDS011;29963;44.594;11.368;2022-07-06T04:18:30;4.63;;;1.13;;
44270;SDS011;29963;44.594;11.368;2022-07-06T04:20:56;2.42;;;0.90;;
44270;SDS011;29963;44.594;11.368;2022-07-06T04:23:22;3.38;;;1.50;;
44270;SDS011;29963;44.594;11.368;2022-07-06T04:25:48;2.55;;;1.33;;
44270;SDS011;29963;44.594;11.368;2022-07-06T04:28:14;3.50;;;0.93;;
44270;SDS011;29963;44.594;11.368;2022-07-06T04:30:39;3.63;;;1.10;;
44270;SDS011;29963;44.594;11.368;2022-07-06T04:33:05;1.77;;;0.95;;
44270;SDS011;29963;44.594;11.368;2022-07-06T04:35:31;3.22;;;1.20;;
44270;SDS011;29963;44.594;11.368;2022-07-06T04:37:57;10.02;;;1.52;;
44270;SDS011;29963;44.594;11.368;2022-07-06T04:40:22;8.10;;;1.73;;
44270;SDS011;29963;44.594;11.368;2022-07-06T04:42:48;4.72;;;1.10;;
44270;SDS011;29963;44.594;11.368;2022-07-06T04:45:14;2.88;;;1.08;;
44270;SDS011;29963;44.594;11.368;2022-07-06T04:47:39;3.63;;;1.00;;
44270;SDS011;29963;44.594;11.368;2022-07-06T04:50:05;1.92;;;0.70;;
44270;SDS011;29963;44.594;11.368;2022-07-06T04:52:31;0.68;;;0.68;;
44270;SDS011;29963;44.594;11.368;2022-07-06T04:54:57;1.98;;;1.02;;
44270;SDS011;29963;44.594;11.368;2022-07-06T04:57:23;4.90;;;1.10;;
44270;SDS011;29963;44.594;11.368;2022-07-06T04:59:50;2.13;;;0.88;;
44270;SDS011;29963;44.594;11.368;2022-07-06T05:02:17;2.30;;;0.80;;
44270;SDS011;29963;44.594;11.368;2022-07-06T05:04:43;1.70;;;0.88;;
44270;SDS011;29963;44.594;11.368;2022-07-06T05:07:08;6.10;;;1.10;;
44270;SDS011;29963;44.594;11.368;2022-07-06T05:09:34;2.55;;;1.23;;
44270;SDS011;29963;44.594;11.368;2022-07-06T05:12:00;4.38;;;1.42;;
44270;SDS011;29963;44.594;11.368;2022-07-06T05:14:25;5.65;;;1.17;;
44270;SDS011;29963;44.594;11.368;2022-07-06T05:16:51;3.53;;;1.25;;
44270;SDS011;29963;44.594;11.368;2022-07-06T05:19:17;1.88;;;1.30;;
44270;SDS011;29963;44.594;11.368;2022-07-06T05:21:42;2.47;;;1.00;;
44270;SDS011;29963;44.594;11.368;2022-07-06T05:24:08;2.17;;;1.00;;
44270;SDS011;29963;44.594;11.368;2022-07-06T05:26:33;3.92;;;1.25;;
44270;SDS011;29963;44.594;11.368;2022-07-06T05:28:59;2.65;;;1.00;;
44270;SDS011;29963;44.594;11.368;2022-07-06T05:31:25;4.90;;;1.30;;
44270;SDS011;29963;44.594;11.368;2022-07-06T05:33:50;2.65;;;1.00;;
44270;SDS011;29963;44.594;11.368;2022-07-06T05:36:16;1.35;;;0.88;;
44270;SDS011;29963;44.594;11.368;2022-07-06T05:38:42;4.75;;;1.05;;
44270;SDS011;29963;44.594;11.368;2022-07-06T05:41:07;8.25;;;2.13;;
44270;SDS011;29963;44.594;11.368;2022-07-06T05:43:36;6.05;;;1.48;;
44270;SDS011;29963;44.594;11.368;2022-07-06T05:46:02;3.10;;;0.90;;
44270;SDS011;29963;44.594;11.368;2022-07-06T05:48:28;3.90;;;1.08;;
44270;SDS011;29963;44.594;11.368;2022-07-06T05:51:13;3.08;;;1.08;;
44270;SDS011;29963;44.594;11.368;2022-07-06T05:53:38;3.90;;;1.40;;
44270;SDS011;29963;44.594;11.368;2022-07-06T05:56:04;5.88;;;1.20;;
44270;SDS011;29963;44.594;11.368;2022-07-06T05:58:30;4.03;;;1.73;;
44270;SDS011;29963;44.594;11.368;2022-07-06T06:00:56;4.95;;;1.00;;
44270;SDS011;29963;44.594;11.368;2022-07-06T06:03:21;3.65;;;1.23;;
44270;SDS011;29963;44.594;11.368;2022-07-06T06:05:47;5.50;;;1.20;;
44270;SDS011;29963;44.594;11.368;2022-07-06T06:08:13;4.18;;;1.20;;
44270;SDS011;29963;44.594;11.368;2022-07-06T06:10:38;6.57;;;1.10;;
44270;SDS011;29963;44.594;11.368;2022-07-06T06:13:04;10.10;;;1.58;;
44270;SDS011;29963;44.594;11.368;2022-07-06T06:15:30;5.80;;;1.75;;
44270;SDS011;29963;44.594;11.368;2022-07-06T06:17:56;2.92;;;1.27;;
44270;SDS011;29963;44.594;11.368;2022-07-06T06:20:22;4.18;;;1.33;;
44270;SDS011;29963;44.594;11.368;2022-07-06T06:22:51;5.18;;;1.45;;
44270;SDS011;29963;44.594;11.368;2022-07-06T06:25:19;4.78;;;1.83;;
44270;SDS011;29963;44.594;11.368;2022-07-06T06:27:52;6.65;;;1.20;;
44270;SDS011;29963;44.594;11.368;2022-07-06T06:30:18;8.82;;;2.08;;
44270;SDS011;29963;44.594;11.368;2022-07-06T06:32:43;7.63;;;2.13;;
44270;SDS011;29963;44.594;11.368;2022-07-06T06:35:09;4.53;;;1.42;;
44270;SDS011;29963;44.594;11.368;2022-07-06T06:37:35;5.10;;;0.98;;
44270;SDS011;29963;44.594;11.368;2022-07-06T06:40:01;4.63;;;0.95;;
44270;SDS011;29963;44.594;11.368;2022-07-06T06:42:27;3.72;;;1.27;;
44270;SDS011;29963;44.594;11.368;2022-07-06T06:44:53;8.35;;;1.80;;
44270;SDS011;29963;44.594;11.368;2022-07-06T06:47:19;3.42;;;1.08;;
44270;SDS011;29963;44.594;11.368;2022-07-06T06:49:45;4.63;;;1.10;;
44270;SDS011;29963;44.594;11.368;2022-07-06T06:52:11;4.32;;;1.60;;
44270;SDS011;29963;44.594;11.368;2022-07-06T06:54:36;7.03;;;1.60;;
44270;SDS011;29963;44.594;11.368;2022-07-06T06:57:02;5.38;;;1.55;;
44270;SDS011;29963;44.594;11.368;2022-07-06T06:59:28;5.43;;;1.60;;
44270;SDS011;29963;44.594;11.368;2022-07-06T07:01:57;3.75;;;1.23;;
44270;SDS011;29963;44.594;11.368;2022-07-06T07:04:23;7.93;;;1.50;;
44270;SDS011;29963;44.594;11.368;2022-07-06T07:06:48;2.33;;;1.00;;
44270;SDS011;29963;44.594;11.368;2022-07-06T07:09:14;3.08;;;1.10;;
44270;SDS011;29963;44.594;11.368;2022-07-06T07:11:40;4.25;;;1.33;;
44270;SDS011;29963;44.594;11.368;2022-07-06T07:14:05;4.70;;;1.25;;
44270;SDS011;29963;44.594;11.368;2022-07-06T07:16:31;3.85;;;0.88;;
44270;SDS011;29963;44.594;11.368;2022-07-06T07:18:57;11.45;;;1.25;;
44270;SDS011;29963;44.594;11.368;2022-07-06T07:21:22;3.92;;;1.23;;
44270;SDS011;29963;44.594;11.368;2022-07-06T07:23:48;6.57;;;1.38;;
44270;SDS011;29963;44.594;11.368;2022-07-06T07:26:15;4.95;;;0.95;;
44270;SDS011;29963;44.594;11.368;2022-07-06T07:28:41;7.75;;;1.33;;
44270;SDS011;29963;44.594;11.368;2022-07-06T07:31:07;6.78;;;1.45;;
44270;SDS011;29963;44.594;11.368;2022-07-06T07:33:33;3.55;;;1.33;;
44270;SDS011;29963;44.594;11.368;2022-07-06T07:35:59;3.97;;;0.95;;
44270;SDS011;29963;44.594;11.368;2022-07-06T07:38:25;4.70;;;1.50;;
44270;SDS011;29963;44.594;11.368;2022-07-06T07:40:52;2.78;;;1.10;;
44270;SDS011;29963;44.594;11.368;2022-07-06T07:43:18;3.53;;;1.10;;
44270;SDS011;29963;44.594;11.368;2022-07-06T07:45:44;3.75;;;1.10;;
44270;SDS011;29963;44.594;11.368;2022-07-06T07:48:11;4.88;;;1.42;;
44270;SDS011;29963;44.594;11.368;2022-07-06T07:50:37;6.63;;;1.27;;
44270;SDS011;29963;44.594;11.368;2022-07-06T07:53:02;4.35;;;1.30;;
44270;SDS011;29963;44.594;11.368;2022-07-06T07:55:31;1.75;;;1.10;;
44270;SDS011;29963;44.594;11.368;2022-07-06T07:57:57;2.47;;;1.33;;
44270;SDS011;29963;44.594;11.368;2022-07-06T08:00:22;2.17;;;1.05;;
44270;SDS011;29963;44.594;11.368;2022-07-06T08:02:49;3.63;;;1.48;;
44270;SDS011;29963;44.594;11.368;2022-07-06T08:05:15;3.47;;;1.05;;
44270;SDS011;29963;44.594;11.368;2022-07-06T08:07:41;3.75;;;1.40;;
44270;SDS011;29963;44.594;11.368;2022-07-06T08:10:08;3.88;;;1.02;;
44270;SDS011;29963;44.594;11.368;2022-07-06T08:12:37;6.13;;;1.63;;
44270;SDS011;29963;44.594;11.368;2022-07-06T08:15:03;3.33;;;1.35;;
44270;SDS011;29963;44.594;11.368;2022-07-06T08:17:29;3.50;;;1.52;;
44270;SDS011;29963;44.594;11.368;2022-07-06T08:19:55;2.92;;;1.52;;
44270;SDS011;29963;44.594;11.368;2022-07-06T08:22:21;1.70;;;1.20;;
44270;SDS011;29963;44.594;11.368;2022-07-06T08:24:47;1.55;;;1.00;;
44270;SDS011;29963;44.594;11.368;2022-07-06T08:27:13;2.63;;;1.27;;
44270;SDS011;29963;44.594;11.368;2022-07-06T08:29:39;11.13;;;2.20;;
44270;SDS011;29963;44.594;11.368;2022-07-06T08:32:05;4.72;;;1.88;;
44270;SDS011;29963;44.594;11.368;2022-07-06T08:34:31;4.90;;;1.80;;
44270;SDS011;29963;44.594;11.368;2022-07-06T08:36:56;4.85;;;1.38;;
44270;SDS011;29963;44.594;11.368;2022-07-06T08:39:22;5.05;;;1.52;;
44270;SDS011;29963;44.594;11.368;2022-07-06T08:41:48;3.65;;;1.60;;
44270;SDS011;29963;44.594;11.368;2022-07-06T08:44:15;4.95;;;1.85;;
44270;SDS011;29963;44.594;11.368;2022-07-06T08:46:42;2.13;;;1.27;;
44270;SDS011;29963;44.594;11.368;2022-07-06T08:49:08;3.60;;;1.67;;
44270;SDS011;29963;44.594;11.368;2022-07-06T08:51:38;3.42;;;1.50;;
44270;SDS011;29963;44.594;11.368;2022-07-06T08:54:05;7.20;;;1.80;;
44270;SDS011;29963;44.594;11.368;2022-07-06T08:56:32;6.20;;;1.75;;
44270;SDS011;29963;44.594;11.368;2022-07-06T08:58:58;2.92;;;1.38;;
44270;SDS011;29963;44.594;11.368;2022-07-06T09:01:24;2.83;;;1.77;;
44270;SDS011;29963;44.594;11.368;2022-07-06T09:03:50;5.20;;;2.33;;
44270;SDS011;29963;44.594;11.368;2022-07-06T09:06:17;5.07;;;1.90;;
44270;SDS011;29963;44.594;11.368;2022-07-06T09:08:48;5.03;;;1.45;;
44270;SDS011;29963;44.594;11.368;2022-07-06T09:11:14;3.70;;;1.70;;
44270;SDS011;29963;44.594;11.368;2022-07-06T09:13:40;7.63;;;2.03;;
44270;SDS011;29963;44.594;11.368;2022-07-06T09:16:12;5.03;;;2.08;;
44270;SDS011;29963;44.594;11.368;2022-07-06T09:18:41;2.78;;;1.60;;
44270;SDS011;29963;44.594;11.368;2022-07-06T09:21:09;5.10;;;1.77;;
44270;SDS011;29963;44.594;11.368;2022-07-06T09:23:35;4.68;;;1.60;;
44270;SDS011;29963;44.594;11.368;2022-07-06T09:26:02;3.65;;;1.33;;
44270;SDS011;29963;44.594;11.368;2022-07-06T09:28:41;5.15;;;2.00;;
44270;SDS011;29963;44.594;11.368;2022-07-06T09:31:10;4.10;;;1.77;;
44270;SDS011;29963;44.594;11.368;2022-07-06T09:33:36;4.63;;;1.40;;
44270;SDS011;29963;44.594;11.368;2022-07-06T09:36:03;2.40;;;1.65;;
44270;SDS011;29963;44.594;11.368;2022-07-06T09:38:30;5.15;;;2.13;;
44270;SDS011;29963;44.594;11.368;2022-07-06T09:40:56;6.47;;;1.73;;
44270;SDS011;29963;44.594;11.368;2022-07-06T09:43:23;4.60;;;1.90;;
44270;SDS011;29963;44.594;11.368;2022-07-06T09:45:52;3.22;;;1.55;;
44270;SDS011;29963;44.594;11.368;2022-07-06T09:48:29;4.95;;;2.13;;
44270;SDS011;29963;44.594;11.368;2022-07-06T09:50:55;4.28;;;1.92;;
44270;SDS011;29963;44.594;11.368;2022-07-06T09:53:23;5.10;;;1.90;;
44270;SDS011;29963;44.594;11.368;2022-07-06T09:55:50;3.72;;;1.65;;
44270;SDS011;29963;44.594;11.368;2022-07-06T09:58:21;4.28;;;1.67;;
44270;SDS011;29963;44.594;11.368;2022-07-06T10:00:47;8.45;;;1.95;;
44270;SDS011;29963;44.594;11.368;2022-07-06T10:03:14;3.33;;;1.70;;
44270;SDS011;29963;44.594;11.368;2022-07-06T10:05:42;3.55;;;1.50;;
44270;SDS011;29963;44.594;11.368;2022-07-06T10:08:11;4.95;;;1.60;;
44270;SDS011;29963;44.594;11.368;2022-07-06T10:10:37;3.00;;;2.05;;
44270;SDS011;29963;44.594;11.368;2022-07-06T10:13:05;4.38;;;1.77;;
44270;SDS011;29963;44.594;11.368;2022-07-06T10:15:33;1.73;;;1.25;;
44270;SDS011;29963;44.594;11.368;2022-07-06T10:18:00;4.75;;;1.52;;
44270;SDS011;29963;44.594;11.368;2022-07-06T10:20:28;3.10;;;1.38;;
44270;SDS011;29963;44.594;11.368;2022-07-06T10:22:57;3.97;;;1.50;;
44270;SDS011;29963;44.594;11.368;2022-07-06T10:25:28;5.13;;;1.92;;
44270;SDS011;29963;44.594;11.368;2022-07-06T10:27:54;3.05;;;1.40;;
44270;SDS011;29963;44.594;11.368;2022-07-06T10:30:21;6.22;;;1.63;;
44270;SDS011;29963;44.594;11.368;2022-07-06T10:32:48;6.07;;;1.77;;
44270;SDS011;29963;44.594;11.368;2022-07-06T10:35:15;6.65;;;1.85;;
44270;SDS011;29963;44.594;11.368;2022-07-06T10:37:43;3.45;;;1.50;;
44270;SDS011;29963;44.594;11.368;2022-07-06T10:40:09;3.15;;;1.85;;
44270;SDS011;29963;44.594;11.368;2022-07-06T10:43:00;2.28;;;1.55;;
44270;SDS011;29963;44.594;11.368;2022-07-06T10:50:37;2.20;;;1.20;;
44270;SDS011;29963;44.594;11.368;2022-07-06T10:53:09;6.05;;;1.20;;
44270;SDS011;29963;44.594;11.368;2022-07-06T10:55:37;2.92;;;1.20;;
44270;SDS011;29963;44.594;11.368;2022-07-06T10:58:04;2.28;;;1.58;;
44270;SDS011;29963;44.594;11.368;2022-07-06T11:00:49;4.47;;;1.55;;
44270;SDS011;29963;44.594;11.368;2022-07-06T11:06:06;1.42;;;1.10;;
44270;SDS011;29963;44.594;11.368;2022-07-06T11:08:45;1.63;;;1.02;;
44270;SDS011;29963;44.594;11.368;2022-07-06T11:13:47;3.08;;;1.15;;
44270;SDS011;29963;44.594;11.368;2022-07-06T11:16:17;1.83;;;1.20;;
44270;SDS011;29963;44.594;11.368;2022-07-06T11:21:38;2.65;;;1.20;;
44270;SDS011;29963;44.594;11.368;2022-07-06T11:24:05;2.85;;;1.30;;
44270;SDS011;29963;44.594;11.368;2022-07-06T11:26:33;5.55;;;1.30;;
44270;SDS011;29963;44.594;11.368;2022-07-06T11:29:03;1.55;;;1.25;;
44270;SDS011;29963;44.594;11.368;2022-07-06T11:31:32;1.88;;;1.00;;
44270;SDS011;29963;44.594;11.368;2022-07-06T11:34:00;3.45;;;1.40;;
44270;SDS011;29963;44.594;11.368;2022-07-06T11:36:27;2.45;;;1.33;;
44270;SDS011;29963;44.594;11.368;2022-07-06T11:38:52;1.92;;;1.33;;
44270;SDS011;29963;44.594;11.368;2022-07-06T11:41:18;1.58;;;1.02;;
44270;SDS011;29963;44.594;11.368;2022-07-06T11:43:44;3.25;;;1.25;;
44270;SDS011;29963;44.594;11.368;2022-07-06T11:48:58;3.95;;;1.25;;
44270;SDS011;29963;44.594;11.368;2022-07-06T11:51:27;3.40;;;1.33;;
44270;SDS011;29963;44.594;11.368;2022-07-06T11:53:57;2.60;;;1.10;;
44270;SDS011;29963;44.594;11.368;2022-07-06T11:56:25;2.75;;;1.38;;
44270;SDS011;29963;44.594;11.368;2022-07-06T11:58:53;3.45;;;1.38;;
44270;SDS011;29963;44.594;11.368;2022-07-06T12:01:20;10.20;;;1.45;;
44270;SDS011;29963;44.594;11.368;2022-07-06T12:03:48;2.92;;;1.00;;
44270;SDS011;29963;44.594;11.368;2022-07-06T12:08:41;3.85;;;0.90;;
44270;SDS011;29963;44.594;11.368;2022-07-06T12:11:08;7.18;;;1.13;;
44270;SDS011;29963;44.594;11.368;2022-07-06T12:13:38;2.63;;;1.35;;
44270;SDS011;29963;44.594;11.368;2022-07-06T12:16:11;2.42;;;1.15;;
44270;SDS011;29963;44.594;11.368;2022-07-06T12:18:38;1.38;;;1.20;;
44270;SDS011;29963;44.594;11.368;2022-07-06T12:21:11;1.83;;;1.45;;
44270;SDS011;29963;44.594;11.368;2022-07-06T12:23:42;1.52;;;1.10;;
44270;SDS011;29963;44.594;11.368;2022-07-06T12:26:10;1.85;;;1.02;;
44270;SDS011;29963;44.594;11.368;2022-07-06T12:28:36;3.83;;;1.40;;
44270;SDS011;29963;44.594;11.368;2022-07-06T12:31:05;3.67;;;1.48;;
44270;SDS011;29963;44.594;11.368;2022-07-06T12:33:31;1.63;;;1.10;;
44270;SDS011;29963;44.594;11.368;2022-07-06T12:36:07;4.55;;;1.20;;
44270;SDS011;29963;44.594;11.368;2022-07-06T12:38:43;1.58;;;0.93;;
44270;SDS011;29963;44.594;11.368;2022-07-06T12:41:10;1.08;;;0.85;;
44270;SDS011;29963;44.594;11.368;2022-07-06T12:43:39;2.83;;;1.27;;
44270;SDS011;29963;44.594;11.368;2022-07-06T12:49:01;2.25;;;1.10;;
44270;SDS011;29963;44.594;11.368;2022-07-06T12:51:29;3.75;;;1.42;;
44270;SDS011;29963;44.594;11.368;2022-07-06T12:54:13;1.00;;;1.00;;
44270;SDS011;29963;44.594;11.368;2022-07-06T12:56:55;1.42;;;1.15;;
44270;SDS011;29963;44.594;11.368;2022-07-06T12:59:32;3.13;;;1.25;;
44270;SDS011;29963;44.594;11.368;2022-07-06T13:01:59;3.83;;;0.90;;
44270;SDS011;29963;44.594;11.368;2022-07-06T13:04:26;2.58;;;1.25;;
44270;SDS011;29963;44.594;11.368;2022-07-06T13:06:54;1.45;;;1.15;;
44270;SDS011;29963;44.594;11.368;2022-07-06T13:09:21;2.35;;;1.17;;
44270;SDS011;29963;44.594;11.368;2022-07-06T13:11:47;1.20;;;1.10;;
44270;SDS011;29963;44.594;11.368;2022-07-06T13:14:17;4.22;;;1.55;;
44270;SDS011;29963;44.594;11.368;2022-07-06T13:16:43;3.22;;;0.98;;
44270;SDS011;29963;44.594;11.368;2022-07-06T13:19:10;13.80;;;11.45;;
44270;SDS011;29963;44.594;11.368;2022-07-06T13:21:36;2.00;;;1.73;;
44270;SDS011;29963;44.594;11.368;2022-07-06T13:24:02;1.77;;;1.10;;
44270;SDS011;29963;44.594;11.368;2022-07-06T13:26:29;1.85;;;0.95;;
44270;SDS011;29963;44.594;11.368;2022-07-06T13:28:58;1.55;;;1.45;;
44270;SDS011;29963;44.594;11.368;2022-07-06T13:31:25;1.15;;;1.05;;
44270;SDS011;29963;44.594;11.368;2022-07-06T13:33:51;2.67;;;1.02;;
44270;SDS011;29963;44.594;11.368;2022-07-06T13:36:17;4.43;;;1.90;;
44270;SDS011;29963;44.594;11.368;2022-07-06T13:38:43;1.45;;;1.30;;
44270;SDS011;29963;44.594;11.368;2022-07-06T13:41:09;1.73;;;1.42;;
44270;SDS011;29963;44.594;11.368;2022-07-06T13:43:35;2.40;;;1.27;;
44270;SDS011;29963;44.594;11.368;2022-07-06T13:46:04;1.80;;;1.48;;
44270;SDS011;29963;44.594;11.368;2022-07-06T13:48:31;2.28;;;1.27;;
44270;SDS011;29963;44.594;11.368;2022-07-06T13:50:57;0.90;;;0.90;;
44270;SDS011;29963;44.594;11.368;2022-07-06T13:53:23;8.48;;;1.48;;
44270;SDS011;29963;44.594;11.368;2022-07-06T13:55:49;1.60;;;1.40;;
44270;SDS011;29963;44.594;11.368;2022-07-06T13:58:15;2.20;;;1.25;;
44270;SDS011;29963;44.594;11.368;2022-07-06T14:00:41;2.80;;;1.30;;
44270;SDS011;29963;44.594;11.368;2022-07-06T14:03:07;2.83;;;0.82;;
44270;SDS011;29963;44.594;11.368;2022-07-06T14:05:33;2.47;;;1.00;;
44270;SDS011;29963;44.594;11.368;2022-07-06T14:07:59;3.05;;;1.38;;
44270;SDS011;29963;44.594;11.368;2022-07-06T14:10:28;1.50;;;0.90;;
44270;SDS011;29963;44.594;11.368;2022-07-06T14:12:54;4.70;;;1.65;;
44270;SDS011;29963;44.594;11.368;2022-07-06T14:15:19;1.45;;;1.10;;
44270;SDS011;29963;44.594;11.368;2022-07-06T14:17:46;2.53;;;1.40;;
44270;SDS011;29963;44.594;11.368;2022-07-06T14:20:15;6.47;;;1.63;;
44270;SDS011;29963;44.594;11.368;2022-07-06T14:22:41;8.75;;;2.22;;
44270;SDS011;29963;44.594;11.368;2022-07-06T14:25:07;1.60;;;1.05;;
44270;SDS011;29963;44.594;11.368;2022-07-06T14:27:34;2.40;;;1.08;;
44270;SDS011;29963;44.594;11.368;2022-07-06T14:30:00;1.88;;;1.40;;
44270;SDS011;29963;44.594;11.368;2022-07-06T14:32:26;2.80;;;1.08;;
44270;SDS011;29963;44.594;11.368;2022-07-06T14:34:51;2.15;;;0.93;;
44270;SDS011;29963;44.594;11.368;2022-07-06T14:37:17;1.98;;;0.90;;
44270;SDS011;29963;44.594;11.368;2022-07-06T14:39:43;5.43;;;1.80;;
44270;SDS011;29963;44.594;11.368;2022-07-06T14:42:11;1.35;;;0.77;;
44270;SDS011;29963;44.594;11.368;2022-07-06T14:44:37;1.60;;;1.00;;
44270;SDS011;29963;44.594;11.368;2022-07-06T14:47:03;1.95;;;0.80;;
44270;SDS011;29963;44.594;11.368;2022-07-06T14:49:29;1.15;;;0.98;;
44270;SDS011;29963;44.594;11.368;2022-07-06T14:51:55;3.78;;;1.10;;
44270;SDS011;29963;44.594;11.368;2022-07-06T14:54:25;3.55;;;0.90;;